Time;durP1;ratioP1;P1;durP2;ratioP2;P2;SDS_P1;SDS_P2;PMS_P1;PMS_P2;Temp;Humidity;BMP_temperature;BMP_pressure;BME280_temperature;BME280_humidity;BME280_pressure;Samples;Min_cycle;Max_cycle;Signal;HPM_P1;HPM_P2
2021/06/10 00:02:26;;;;;;;14.20;12.83;;;21.40;1.00;;;;;;5642594;23;21000;-67
2021/06/10 00:04:51;;;;;;;13.60;12.30;;;21.50;1.00;;;;;;5635205;23;20541;-68
2021/06/10 00:07:18;;;;;;;13.53;12.23;;;21.50;1.00;;;;;;5636855;23;20978;-67
2021/06/10 00:09:45;;;;;;;13.37;12.13;;;21.50;99.90;;;;;;5653472;23;20878;-67
2021/06/10 00:12:14;;;;;;;12.47;11.17;;;21.50;99.90;;;;;;5665107;23;20807;-67
2021/06/10 00:14:42;;;;;;;12.73;11.43;;;21.40;99.90;;;;;;5660561;23;20863;-67
2021/06/10 00:17:08;;;;;;;12.60;11.40;;;21.50;33.40;;;;;;5650339;23;21356;-67
2021/06/10 00:19:34;;;;;;;13.73;12.37;;;21.40;99.90;;;;;;5664660;23;20959;-67
2021/06/10 00:22:00;;;;;;;13.57;12.30;;;21.40;99.90;;;;;;5640662;23;21161;-67
2021/06/10 00:24:27;;;;;;;13.77;12.33;;;21.30;99.90;;;;;;5638764;23;20619;-67
2021/06/10 00:26:53;;;;;;;15.37;13.77;;;21.20;99.90;;;;;;5656076;23;20824;-67
2021/06/10 00:29:19;;;;;;;13.73;12.37;;;21.20;99.90;;;;;;5674984;23;20806;-67
2021/06/10 00:31:47;;;;;;;14.27;12.70;;;21.10;1.00;;;;;;5663117;23;20793;-67
2021/06/10 00:34:14;;;;;;;14.07;12.57;;;21.20;1.00;;;;;;5667556;23;20699;-67
2021/06/10 00:36:40;;;;;;;13.17;11.97;;;21.10;1.00;;;;;;5621166;23;20852;-67
2021/06/10 00:39:06;;;;;;;14.60;13.20;;;21.00;1.00;;;;;;5655528;23;20849;-66
2021/06/10 00:41:33;;;;;;;14.63;13.23;;;20.70;99.90;;;;;;5643352;23;20896;-66
2021/06/10 00:44:00;;;;;;;13.77;12.37;;;20.50;99.90;;;;;;5652834;23;20528;-66
2021/06/10 00:46:26;;;;;;;15.67;14.00;;;20.60;99.90;;;;;;5648965;23;21260;-66
2021/06/10 00:48:52;;;;;;;13.90;12.40;;;20.70;1.00;;;;;;5656288;23;20982;-66
2021/06/10 00:51:18;;;;;;;15.33;13.17;;;20.60;1.00;;;;;;5607288;23;20826;-66
2021/06/10 00:53:44;;;;;;;16.23;13.57;;;20.60;1.00;;;;;;5612434;23;20522;-66
2021/06/10 00:56:11;;;;;;;17.03;14.73;;;20.50;99.90;;;;;;5637464;23;20947;-66
2021/06/10 00:58:37;;;;;;;16.07;14.37;;;20.50;99.90;;;;;;5638299;23;20158;-67
2021/06/10 01:01:03;;;;;;;14.80;13.40;;;20.40;1.00;;;;;;5649305;23;21220;-67
2021/06/10 01:03:29;;;;;;;16.97;15.37;;;20.30;99.90;;;;;;5651478;23;20556;-66
2021/06/10 01:06:00;;;;;;;15.97;14.37;;;20.10;24.70;;;;;;5650831;23;20588;-67
2021/06/10 01:08:48;;;;;;;16.83;15.10;;;19.90;1.00;;;;;;5628434;23;20382;-67
2021/06/10 01:11:32;;;;;;;16.13;14.27;;;19.90;1.00;;;;;;5644903;23;20837;-67
2021/06/10 01:14:04;;;;;;;17.33;15.53;;;19.70;18.90;;;;;;5665452;23;20493;-66
2021/06/10 01:16:34;;;;;;;17.63;15.80;;;19.40;1.00;;;;;;5628755;23;20872;-67
2021/06/10 01:19:08;;;;;;;16.63;14.87;;;19.30;1.00;;;;;;5644766;23;20366;-67
2021/06/10 01:21:36;;;;;;;16.83;15.13;;;19.30;1.00;;;;;;5656829;23;20812;-67
2021/06/10 01:24:11;;;;;;;17.07;14.77;;;19.20;1.00;;;;;;5650898;23;20382;-66
2021/06/10 01:26:51;;;;;;;19.57;16.57;;;19.30;1.00;;;;;;5636323;23;20852;-67
2021/06/10 01:29:18;;;;;;;17.20;14.97;;;19.50;1.00;;;;;;5665924;23;20765;-67
2021/06/10 01:31:43;;;;;;;17.60;15.80;;;19.40;1.00;;;;;;5659103;23;20378;-66
2021/06/10 01:34:12;;;;;;;20.03;17.60;;;19.40;1.00;;;;;;5655895;23;20884;-67
2021/06/10 01:36:41;;;;;;;23.30;17.40;;;19.50;1.00;;;;;;5628679;23;20627;-67
2021/06/10 01:39:10;;;;;;;17.83;15.73;;;19.60;1.00;;;;;;5619554;23;20761;-66
2021/06/10 01:41:38;;;;;;;20.67;17.47;;;19.60;1.00;;;;;;5637691;23;20996;-67
2021/06/10 01:44:06;;;;;;;17.87;15.77;;;19.50;1.00;;;;;;5652504;23;20754;-66
2021/06/10 01:46:33;;;;;;;16.90;14.90;;;19.40;1.00;;;;;;5643991;23;20812;-66
2021/06/10 01:49:00;;;;;;;21.73;17.80;;;19.40;1.00;;;;;;5625521;23;20842;-67
2021/06/10 01:51:29;;;;;;;18.53;16.57;;;19.20;1.00;;;;;;5655961;23;21192;-67
2021/06/10 01:53:57;;;;;;;20.23;18.10;;;19.10;3.80;;;;;;5651926;23;20865;-67
2021/06/10 01:56:25;;;;;;;20.53;18.33;;;18.80;99.90;;;;;;5659069;23;21028;-66
2021/06/10 01:58:52;;;;;;;19.23;17.13;;;18.70;99.90;;;;;;5628740;23;20772;-66
2021/06/10 02:01:20;;;;;;;22.27;19.83;;;18.60;99.90;;;;;;5619897;23;20386;-67
2021/06/10 02:03:48;;;;;;;21.27;18.70;;;18.60;1.00;;;;;;5633343;23;20797;-66
2021/06/10 02:06:15;;;;;;;21.60;19.10;;;18.40;1.00;;;;;;5630074;23;20977;-66
2021/06/10 02:08:41;;;;;;;21.30;18.10;;;18.50;1.00;;;;;;5633253;23;20386;-67
2021/06/10 02:11:07;;;;;;;21.30;17.67;;;18.70;1.00;;;;;;5654463;23;20801;-66
2021/06/10 02:13:34;;;;;;;25.23;19.10;;;18.60;1.00;;;;;;5634576;23;20428;-67
2021/06/10 02:16:05;;;;;;;23.80;20.60;;;18.40;1.00;;;;;;5647274;23;20916;-67
2021/06/10 02:18:32;;;;;;;24.33;20.57;;;18.40;1.00;;;;;;5636290;23;21184;-67
2021/06/10 02:21:06;;;;;;;25.37;19.87;;;18.20;1.00;;;;;;5640107;23;20382;-68
2021/06/10 02:23:38;;;;;;;22.07;17.83;;;18.50;1.00;;;;;;5642221;23;20794;-67
2021/06/10 02:26:05;;;;;;;21.50;19.27;;;18.50;1.00;;;;;;5637707;23;20898;-67
2021/06/10 02:28:31;;;;;;;26.60;21.97;;;18.40;1.00;;;;;;5633811;23;20917;-67
2021/06/10 02:30:58;;;;;;;22.80;20.07;;;18.20;1.00;;;;;;5641125;23;20814;-67
2021/06/10 02:33:24;;;;;;;24.43;21.77;;;17.90;1.00;;;;;;5615956;23;20895;-66
2021/06/10 02:35:50;;;;;;;22.80;20.47;;;17.90;1.00;;;;;;5649553;23;20922;-67
2021/06/10 02:38:18;;;;;;;28.60;20.87;;;18.00;1.00;;;;;;5621601;23;20700;-66
2021/06/10 02:40:48;;;;;;;25.40;20.47;;;18.00;1.00;;;;;;5643858;23;20162;-66
2021/06/10 02:43:14;;;;;;;26.43;22.93;;;18.20;1.00;;;;;;5649733;23;20788;-66
2021/06/10 02:45:42;;;;;;;25.27;21.57;;;18.20;1.00;;;;;;5648649;23;20477;-67
2021/06/10 02:48:09;;;;;;;23.13;20.73;;;18.00;1.00;;;;;;5646871;23;20390;-67
2021/06/10 02:50:38;;;;;;;28.40;20.70;;;18.00;1.00;;;;;;5639253;23;20917;-67
2021/06/10 02:53:05;;;;;;;24.10;20.80;;;18.20;1.00;;;;;;5638371;23;20835;-66
2021/06/10 02:55:33;;;;;;;23.63;20.50;;;18.40;1.00;;;;;;5641355;23;20484;-67
2021/06/10 02:57:59;;;;;;;24.17;20.63;;;18.50;1.00;;;;;;5595617;23;20823;-67
2021/06/10 03:00:30;;;;;;;26.40;23.30;;;18.50;1.00;;;;;;5612522;23;20854;-67
2021/06/10 03:02:57;;;;;;;23.10;19.90;;;18.60;1.00;;;;;;5650430;23;20773;-67
2021/06/10 03:05:25;;;;;;;23.37;19.70;;;18.60;1.00;;;;;;5654814;23;20896;-67
2021/06/10 03:07:52;;;;;;;23.77;21.17;;;18.70;1.00;;;;;;5648309;23;21249;-67
2021/06/10 03:10:24;;;;;;;24.10;20.73;;;18.70;1.00;;;;;;5642757;23;20878;-67
2021/06/10 03:12:52;;;;;;;24.13;19.23;;;18.80;1.00;;;;;;5643748;23;20808;-65
2021/06/10 03:15:19;;;;;;;26.10;21.37;;;18.70;1.00;;;;;;5650863;23;21060;-65
2021/06/10 03:17:45;;;;;;;24.63;20.40;;;18.70;1.00;;;;;;5657841;23;20405;-66
2021/06/10 03:20:11;;;;;;;23.37;19.77;;;18.80;1.00;;;;;;5643186;23;20899;-65
2021/06/10 03:22:37;;;;;;;22.73;19.90;;;18.70;1.00;;;;;;5655627;23;20393;-64
2021/06/10 03:25:07;;;;;;;25.00;21.27;;;18.80;1.00;;;;;;5671868;23;20796;-68
2021/06/10 03:27:34;;;;;;;22.20;18.90;;;18.80;1.00;;;;;;5651289;23;20927;-66
2021/06/10 03:30:00;;;;;;;23.47;20.97;;;18.80;1.00;;;;;;5660926;23;20397;-65
2021/06/10 03:32:27;;;;;;;24.20;20.57;;;18.90;1.00;;;;;;5662554;23;20433;-66
2021/06/10 03:34:54;;;;;;;25.27;19.43;;;19.10;1.00;;;;;;5661385;23;20826;-66
2021/06/10 03:37:22;;;;;;;22.43;20.03;;;19.10;99.90;;;;;;5652137;23;20952;-66
2021/06/10 03:39:48;;;;;;;20.33;18.13;;;19.20;99.90;;;;;;5647976;23;20942;-65
2021/06/10 03:42:15;;;;;;;22.23;19.87;;;19.30;99.90;;;;;;5653003;23;20830;-66
2021/06/10 03:44:41;;;;;;;21.80;18.90;;;19.30;99.90;;;;;;5663177;23;20832;-66
2021/06/10 03:47:06;;;;;;;23.40;19.60;;;19.50;99.90;;;;;;5649295;23;20834;-66
2021/06/10 03:49:32;;;;;;;24.30;19.50;;;19.70;99.90;;;;;;5653043;23;20513;-66
2021/06/10 03:51:59;;;;;;;20.70;18.43;;;19.80;17.90;;;;;;5662541;23;20165;-66
2021/06/10 03:54:24;;;;;;;21.60;18.30;;;19.90;1.00;;;;;;5656994;23;20454;-66
2021/06/10 03:56:50;;;;;;;19.13;17.00;;;20.10;1.00;;;;;;5636029;23;20413;-66
2021/06/10 03:59:16;;;;;;;19.67;17.57;;;20.40;1.00;;;;;;5625639;23;20582;-66
2021/06/10 04:01:42;;;;;;;20.70;18.60;;;21.00;1.00;;;;;;5607394;23;20182;-66
2021/06/10 04:04:08;;;;;;;19.90;17.77;;;21.90;1.00;;;;;;5705792;23;20675;-66
2021/06/10 04:06:35;;;;;;;20.47;18.30;;;22.90;1.00;;;;;;5693661;23;20496;-66
2021/06/10 04:09:03;;;;;;;19.30;17.30;;;23.80;1.00;;;;;;5714031;23;20500;-66
2021/06/10 04:11:29;;;;;;;17.50;15.63;;;24.40;1.00;;;;;;5722286;23;20721;-67
2021/06/10 04:13:56;;;;;;;17.77;15.77;;;24.70;99.90;;;;;;5743044;23;20488;-65
2021/06/10 04:16:22;;;;;;;19.63;16.33;;;24.50;99.90;;;;;;5724118;23;20456;-68
2021/06/10 04:18:49;;;;;;;18.30;16.40;;;24.50;99.90;;;;;;5698202;23;21249;-65
2021/06/10 04:21:14;;;;;;;17.50;15.70;;;24.30;99.90;;;;;;5703093;23;20857;-65
2021/06/10 04:23:40;;;;;;;17.10;15.40;;;24.10;99.90;;;;;;5698333;23;20916;-66
2021/06/10 04:26:07;;;;;;;18.50;16.70;;;24.30;99.90;;;;;;5677243;23;20891;-65
2021/06/10 04:28:33;;;;;;;19.33;16.23;;;24.60;99.90;;;;;;5637062;23;20385;-65
2021/06/10 04:30:59;;;;;;;17.10;15.40;;;24.60;99.90;;;;;;5687452;23;20815;-65
2021/06/10 04:33:27;;;;;;;17.00;15.20;;;24.80;99.90;;;;;;5690528;23;20598;-66
2021/06/10 04:35:53;;;;;;;17.53;15.77;;;24.70;99.90;;;;;;5687343;23;20425;-65
2021/06/10 04:38:19;;;;;;;17.63;15.73;;;24.90;99.90;;;;;;5696657;23;20499;-65
2021/06/10 04:40:45;;;;;;;23.13;17.60;;;24.70;99.90;;;;;;5736760;23;20417;-65
2021/06/10 04:43:12;;;;;;;19.37;17.30;;;24.20;99.90;;;;;;5706731;23;20808;-64
2021/06/10 04:45:38;;;;;;;18.80;16.90;;;23.60;1.00;;;;;;5706570;23;20776;-65
2021/06/10 04:48:06;;;;;;;20.20;18.10;;;23.30;6.70;;;;;;5704071;23;20886;-65
2021/06/10 04:50:34;;;;;;;17.53;15.63;;;23.20;99.90;;;;;;5710564;23;20865;-65
2021/06/10 04:53:04;;;;;;;18.03;16.13;;;23.20;99.90;;;;;;5743359;23;20840;-65
2021/06/10 04:55:33;;;;;;;19.30;17.37;;;23.10;99.90;;;;;;5828284;23;20960;-65
2021/06/10 04:58:13;;;;;;;18.50;16.60;;;22.90;1.00;;;;;;5912255;23;20708;-66
2021/06/10 05:00:40;;;;;;;17.73;14.83;;;23.00;1.00;;;;;;5802605;23;20454;-65
2021/06/10 05:03:07;;;;;;;16.83;15.03;;;23.00;1.00;;;;;;5710406;23;21117;-65
2021/06/10 05:05:34;;;;;;;17.20;15.50;;;23.10;1.00;;;;;;5803323;23;20910;-65
2021/06/10 05:08:00;;;;;;;18.77;16.77;;;23.40;76.90;;;;;;5705377;23;20401;-65
2021/06/10 05:10:25;;;;;;;17.43;15.30;;;23.50;83.70;;;;;;5709774;23;20385;-65
2021/06/10 05:12:52;;;;;;;16.73;15.03;;;23.80;1.00;;;;;;5677974;23;20908;-65
2021/06/10 05:15:18;;;;;;;16.03;14.03;;;24.00;1.00;;;;;;5642444;23;20869;-65
2021/06/10 05:17:44;;;;;;;20.63;18.20;;;24.20;99.90;;;;;;5697413;23;20871;-65
2021/06/10 05:20:11;;;;;;;17.20;15.47;;;24.40;99.90;;;;;;5708254;23;20920;-65
2021/06/10 05:22:37;;;;;;;18.93;15.70;;;24.80;99.90;;;;;;5696131;23;20382;-65
2021/06/10 05:25:04;;;;;;;17.43;13.83;;;25.10;99.90;;;;;;5710929;23;20878;-65
2021/06/10 05:27:34;;;;;;;18.80;16.93;;;25.70;1.00;;;;;;5674907;23;20935;-65
2021/06/10 05:30:01;;;;;;;15.30;13.90;;;26.40;1.00;;;;;;5650896;23;20881;-65
2021/06/10 05:32:26;;;;;;;15.43;13.83;;;26.90;1.00;;;;;;5678463;23;20430;-65
2021/06/10 05:34:52;;;;;;;14.83;12.97;;;27.30;1.00;;;;;;5709834;23;21509;-65
2021/06/10 05:37:18;;;;;;;14.93;12.20;;;27.40;1.00;;;;;;5705373;23;20531;-65
2021/06/10 05:39:44;;;;;;;13.27;11.77;;;27.40;1.00;;;;;;5702494;23;20959;-65
2021/06/10 05:42:11;;;;;;;12.40;11.20;;;26.80;1.00;;;;;;5687532;23;20795;-65
2021/06/10 05:44:37;;;;;;;13.10;11.30;;;26.50;1.00;;;;;;5677919;23;20402;-65
2021/06/10 05:47:03;;;;;;;10.40;9.40;;;27.30;1.00;;;;;;5684506;23;21253;-65
2021/06/10 05:49:29;;;;;;;12.87;9.73;;;28.10;1.00;;;;;;5660583;23;20552;-65
2021/06/10 05:51:55;;;;;;;11.20;10.20;;;28.40;1.00;;;;;;5689390;23;20942;-65
2021/06/10 05:54:21;;;;;;;11.93;10.73;;;29.30;1.00;;;;;;5705073;23;20765;-65
2021/06/10 05:56:49;;;;;;;9.67;8.70;;;29.20;1.00;;;;;;5660608;23;20945;-65
2021/06/10 05:59:15;;;;;;;10.40;9.43;;;29.30;1.00;;;;;;5688467;23;21241;-65
2021/06/10 06:01:42;;;;;;;13.57;10.83;;;29.80;1.00;;;;;;5665863;23;20936;-65
2021/06/10 06:04:08;;;;;;;12.40;10.60;;;30.10;1.00;;;;;;5688533;23;21424;-65
2021/06/10 06:06:34;;;;;;;12.10;10.90;;;30.80;1.00;;;;;;5643121;23;21016;-65
2021/06/10 06:09:00;;;;;;;13.47;10.07;;;30.80;1.00;;;;;;5667781;23;20460;-64
2021/06/10 06:11:26;;;;;;;9.83;8.83;;;31.40;1.00;;;;;;5690607;23;20708;-67
2021/06/10 06:14:13;;;;;;;10.07;9.17;;;31.80;1.00;;;;;;5679951;23;20813;-67
2021/06/10 06:16:44;;;;;;;9.73;8.70;;;32.60;1.00;;;;;;5564923;23;21295;-68
2021/06/10 06:19:14;;;;;;;10.80;7.40;;;32.80;1.00;;;;;;5676682;23;20439;-69
2021/06/10 06:21:42;;;;;;;7.83;7.23;;;32.10;1.00;;;;;;5663557;23;20437;-70
2021/06/10 06:24:08;;;;;;;9.07;7.53;;;31.70;1.00;;;;;;5634035;23;21311;-68
2021/06/10 06:26:34;;;;;;;9.90;8.97;;;31.70;1.00;;;;;;5678435;23;20713;-67
2021/06/10 06:29:02;;;;;;;9.70;8.70;;;32.80;1.00;;;;;;5681171;23;21033;-68
2021/06/10 06:31:30;;;;;;;15.60;9.63;;;33.20;1.00;;;;;;5700539;23;20307;-68
2021/06/10 06:33:56;;;;;;;11.33;9.97;;;33.10;1.00;;;;;;5693938;23;20374;-67
2021/06/10 06:36:22;;;;;;;13.43;11.40;;;31.70;1.00;;;;;;5686044;23;20942;-67
2021/06/10 06:38:49;;;;;;;10.07;9.17;;;30.70;1.00;;;;;;5682820;23;20917;-66
2021/06/10 06:41:15;;;;;;;12.13;10.87;;;29.50;1.00;;;;;;5669217;23;20893;-66
2021/06/10 06:43:41;;;;;;;11.10;10.00;;;28.80;1.00;;;;;;5674252;23;20835;-67
2021/06/10 06:46:09;;;;;;;10.70;9.70;;;29.00;1.00;;;;;;5638399;23;21304;-69
2021/06/10 06:48:37;;;;;;;12.13;10.97;;;29.70;1.00;;;;;;5636504;23;20810;-68
2021/06/10 06:51:04;;;;;;;11.00;9.97;;;30.30;1.00;;;;;;5596753;23;20382;-68
2021/06/10 06:53:30;;;;;;;11.60;10.43;;;30.50;1.00;;;;;;5651373;23;20390;-68
2021/06/10 06:55:57;;;;;;;10.63;9.53;;;30.90;1.00;;;;;;5647237;23;20425;-68
2021/06/10 06:58:24;;;;;;;10.03;9.13;;;30.20;1.00;;;;;;5644186;23;20801;-68
2021/06/10 07:00:50;;;;;;;12.03;10.00;;;31.20;1.00;;;;;;5637799;23;21212;-67
2021/06/10 07:03:16;;;;;;;12.90;11.73;;;32.10;1.00;;;;;;5664465;23;20907;-67
2021/06/10 07:05:43;;;;;;;12.20;10.93;;;32.20;1.00;;;;;;5665558;23;20951;-68
2021/06/10 07:08:08;;;;;;;12.77;11.50;;;31.90;1.00;;;;;;5578967;23;20954;-67
2021/06/10 07:10:35;;;;;;;17.13;10.47;;;30.80;1.00;;;;;;5652232;23;20972;-70
2021/06/10 07:13:01;;;;;;;11.93;10.83;;;31.80;1.00;;;;;;5655959;23;20897;-68
2021/06/10 07:15:27;;;;;;;11.07;10.07;;;31.80;1.00;;;;;;5617528;23;20989;-66
2021/06/10 07:17:53;;;;;;;11.83;10.63;;;33.10;1.00;;;;;;5646769;23;20766;-65
2021/06/10 07:20:19;;;;;;;11.07;9.87;;;34.20;1.00;;;;;;5635593;23;20650;-68
2021/06/10 07:22:45;;;;;;;13.33;10.40;;;33.30;1.00;;;;;;5626754;23;21035;-65
2021/06/10 07:25:11;;;;;;;14.90;11.57;;;32.60;1.00;;;;;;5641177;23;20705;-65
2021/06/10 07:27:37;;;;;;;11.43;9.90;;;32.10;1.00;;;;;;5643344;23;20860;-65
2021/06/10 07:30:06;;;;;;;13.70;9.93;;;32.40;1.00;;;;;;5635033;23;20862;-66
2021/06/10 07:32:32;;;;;;;11.30;10.10;;;30.70;1.00;;;;;;5639137;23;20443;-67
2021/06/10 07:34:58;;;;;;;12.57;10.57;;;30.90;1.00;;;;;;5637724;23;20846;-67
2021/06/10 07:37:23;;;;;;;11.00;9.30;;;31.10;1.00;;;;;;5644799;23;20485;-66
2021/06/10 07:39:49;;;;;;;11.17;9.53;;;30.40;1.00;;;;;;5638571;23;20958;-66
2021/06/10 07:42:15;;;;;;;14.50;10.07;;;28.10;1.00;;;;;;5637248;23;20858;-65
2021/06/10 07:44:40;;;;;;;10.80;8.90;;;27.80;1.00;;;;;;5653909;23;20529;-65
2021/06/10 07:47:06;;;;;;;11.87;9.93;;;27.70;1.00;;;;;;5639079;23;20496;-66
2021/06/10 07:49:35;;;;;;;10.57;9.50;;;27.30;1.00;;;;;;5688010;23;20143;-65
2021/06/10 07:52:01;;;;;;;20.93;10.03;;;26.20;1.00;;;;;;5717516;23;20154;-66
2021/06/10 07:54:27;;;;;;;11.90;10.70;;;26.30;1.00;;;;;;5715036;23;20436;-66
2021/06/10 07:56:53;;;;;;;12.03;9.10;;;25.90;1.00;;;;;;5697003;23;20382;-70
2021/06/10 07:59:25;;;;;;;10.07;8.47;;;26.30;1.00;;;;;;5693813;23;20244;-66
2021/06/10 08:01:54;;;;;;;11.60;7.70;;;26.70;1.00;;;;;;5678310;23;20828;-67
2021/06/10 08:04:22;;;;;;;13.80;7.57;;;26.00;1.00;;;;;;5698899;23;20832;-66
2021/06/10 08:06:49;;;;;;;10.97;8.10;;;25.70;1.00;;;;;;5685946;23;20382;-67
2021/06/10 08:09:15;;;;;;;8.77;7.53;;;25.50;1.00;;;;;;5671838;23;21284;-67
2021/06/10 08:11:45;;;;;;;13.33;8.57;;;25.50;1.00;;;;;;5666461;23;20918;-65
2021/06/10 08:14:11;;;;;;;9.80;8.00;;;25.70;1.00;;;;;;5667705;23;20845;-67
2021/06/10 08:16:37;;;;;;;11.87;8.77;;;25.60;1.00;;;;;;5656432;23;20850;-68
2021/06/10 08:19:03;;;;;;;9.60;8.60;;;25.40;1.00;;;;;;5646412;23;20413;-67
2021/06/10 08:21:29;;;;;;;14.00;12.30;;;25.70;1.00;;;;;;5646717;23;20392;-67
2021/06/10 08:23:56;;;;;;;13.93;10.50;;;25.50;1.00;;;;;;5646394;23;20390;-66
2021/06/10 08:26:22;;;;;;;12.43;10.50;;;24.90;1.00;;;;;;5606785;23;20805;-68
2021/06/10 08:28:47;;;;;;;15.90;12.20;;;24.90;1.00;;;;;;5584073;23;20834;-69
2021/06/10 08:31:15;;;;;;;14.73;11.80;;;25.00;1.00;;;;;;5626256;23;20528;-67
2021/06/10 08:33:42;;;;;;;14.70;11.20;;;25.80;1.00;;;;;;5639311;23;20575;-68
2021/06/10 08:36:08;;;;;;;12.60;11.30;;;25.50;1.00;;;;;;5619126;23;20869;-65
2021/06/10 08:38:35;;;;;;;13.07;11.77;;;25.90;1.00;;;;;;5611280;23;20969;-68
2021/06/10 08:41:02;;;;;;;15.23;12.00;;;26.60;1.00;;;;;;5629998;23;20846;-66
2021/06/10 08:43:28;;;;;;;12.37;11.10;;;26.60;1.00;;;;;;5632679;23;20795;-68
2021/06/10 08:46:00;;;;;;;13.07;10.40;;;25.80;1.00;;;;;;5614490;23;20859;-66
2021/06/10 08:48:30;;;;;;;11.87;10.70;;;25.70;1.00;;;;;;5588867;23;21179;-65
2021/06/10 08:50:57;;;;;;;11.20;10.00;;;25.60;1.00;;;;;;5584551;23;21273;-66
2021/06/10 08:53:23;;;;;;;10.77;9.87;;;25.60;1.00;;;;;;5623580;23;20765;-66
2021/06/10 08:55:49;;;;;;;10.57;9.57;;;25.90;1.00;;;;;;5698454;23;20421;-66
2021/06/10 08:58:16;;;;;;;13.17;11.77;;;25.80;1.00;;;;;;5678713;23;20386;-66
2021/06/10 09:00:42;;;;;;;13.33;12.00;;;25.20;1.00;;;;;;5700279;23;20425;-66
2021/06/10 09:03:08;;;;;;;10.80;9.70;;;25.00;1.00;;;;;;5679380;23;20823;-68
2021/06/10 09:05:34;;;;;;;12.03;10.53;;;25.20;1.00;;;;;;5683151;23;20897;-67
2021/06/10 09:08:09;;;;;;;13.60;12.30;;;25.10;1.00;;;;;;5703657;23;20878;-67
2021/06/10 09:10:37;;;;;;;14.33;12.83;;;25.30;1.00;;;;;;5703812;23;21089;-67
2021/06/10 09:13:06;;;;;;;14.70;13.23;;;25.50;1.00;;;;;;5705697;23;20472;-67
2021/06/10 09:15:34;;;;;;;15.43;13.83;;;25.00;1.00;;;;;;5688488;23;20437;-67
2021/06/10 09:18:02;;;;;;;15.57;13.97;;;24.90;1.00;;;;;;5698628;23;20386;-65
2021/06/10 09:20:35;;;;;;;13.23;11.83;;;25.00;1.00;;;;;;5662757;23;20788;-65
2021/06/10 09:23:16;;;;;;;13.87;11.17;;;25.30;1.00;;;;;;5664224;23;20398;-65
2021/06/10 09:25:43;;;;;;;12.00;10.90;;;26.10;1.00;;;;;;5640870;23;20934;-65
2021/06/10 09:28:10;;;;;;;12.17;10.10;;;26.30;1.00;;;;;;5660943;23;20824;-67
2021/06/10 09:30:56;;;;;;;11.67;10.47;;;26.50;1.00;;;;;;5698102;23;20904;-66
2021/06/10 09:33:25;;;;;;;14.40;12.77;;;27.00;1.00;;;;;;5700622;23;20366;-66
2021/06/10 09:35:54;;;;;;;13.30;12.00;;;27.10;1.00;;;;;;5683054;23;20926;-66
2021/06/10 09:38:22;;;;;;;12.80;11.60;;;26.20;1.00;;;;;;5691769;23;20386;-66
2021/06/10 09:41:01;;;;;;;12.37;11.23;;;25.50;1.00;;;;;;5694916;23;20493;-69
2021/06/10 09:43:45;;;;;;;15.00;13.50;;;25.40;1.00;;;;;;5705333;23;20870;-68
2021/06/10 09:46:11;;;;;;;13.80;12.40;;;25.80;1.00;;;;;;5712414;23;20800;-67
2021/06/10 09:48:37;;;;;;;12.70;11.50;;;25.40;1.00;;;;;;5684385;23;21371;-67
2021/06/10 09:51:04;;;;;;;13.33;12.03;;;25.20;1.00;;;;;;5697232;23;20808;-68
2021/06/10 09:53:32;;;;;;;14.17;12.67;;;25.00;1.00;;;;;;5703051;23;21249;-68
2021/06/10 09:56:07;;;;;;;13.13;11.73;;;25.40;1.00;;;;;;5700174;23;20448;-65
2021/06/10 09:58:42;;;;;;;13.13;11.73;;;25.30;1.00;;;;;;5694727;23;20397;-65
2021/06/10 10:01:20;;;;;;;14.03;12.53;;;25.30;1.00;;;;;;5694732;23;20941;-69
2021/06/10 10:03:50;;;;;;;12.30;11.00;;;25.50;1.00;;;;;;5702716;23;20959;-69
2021/06/10 10:06:26;;;;;;;12.67;11.40;;;25.60;1.00;;;;;;5694639;23;20778;-66
2021/06/10 10:08:54;;;;;;;12.57;11.40;;;25.70;1.00;;;;;;5707918;23;20803;-65
2021/06/10 10:11:22;;;;;;;12.00;10.90;;;25.50;1.00;;;;;;5673580;23;20678;-65
2021/06/10 10:13:51;;;;;;;14.20;12.80;;;25.00;1.00;;;;;;5684366;23;20421;-65
2021/06/10 10:16:26;;;;;;;13.90;12.40;;;25.10;1.00;;;;;;5707994;23;20417;-67
2021/06/10 10:18:54;;;;;;;12.43;11.10;;;25.70;1.00;;;;;;5700114;23;20377;-67
2021/06/10 10:21:27;;;;;;;14.53;13.03;;;25.90;1.00;;;;;;5701310;23;20464;-67
2021/06/10 10:24:01;;;;;;;13.87;12.63;;;25.10;1.00;;;;;;5711081;23;20914;-67
2021/06/10 10:26:30;;;;;;;12.33;11.13;;;25.10;1.00;;;;;;5715653;23;20382;-67
2021/06/10 10:28:57;;;;;;;13.07;11.90;;;25.10;1.00;;;;;;5693628;23;20682;-64
2021/06/10 10:31:25;;;;;;;14.47;12.27;;;24.90;1.00;;;;;;5626486;23;20956;-68
2021/06/10 10:33:51;;;;;;;14.23;12.83;;;25.10;1.00;;;;;;5668734;23;20457;-68
2021/06/10 10:36:31;;;;;;;15.60;14.07;;;25.50;1.00;;;;;;5651068;23;20512;-67
2021/06/10 10:39:09;;;;;;;13.10;11.80;;;26.30;1.00;;;;;;5678386;23;20469;-68
2021/06/10 10:41:55;;;;;;;12.07;11.00;;;26.00;1.00;;;;;;5701286;23;20370;-68
2021/06/10 10:44:26;;;;;;;10.57;9.50;;;25.20;1.00;;;;;;5685533;23;20390;-68
2021/06/10 10:47:02;;;;;;;11.80;10.60;;;25.40;1.00;;;;;;5706443;23;20891;-67
2021/06/10 10:49:30;;;;;;;12.17;11.07;;;25.70;1.00;;;;;;5710286;23;20786;-67
2021/06/10 10:52:18;;;;;;;12.37;11.07;;;25.50;1.00;;;;;;5671847;23;21216;-67
2021/06/10 10:54:49;;;;;;;10.90;9.90;;;25.30;1.00;;;;;;5717870;23;20698;-67
2021/06/10 10:57:36;;;;;;;11.80;10.70;;;25.60;1.00;;;;;;5689962;23;20370;-67
2021/06/10 11:00:05;;;;;;;12.33;11.17;;;25.60;1.00;;;;;;5705390;23;20785;-67
2021/06/10 11:02:31;;;;;;;12.50;11.20;;;25.90;1.00;;;;;;5676938;23;20572;-64
2021/06/10 11:05:05;;;;;;;13.90;12.40;;;26.00;1.00;;;;;;5707869;23;21431;-65
2021/06/10 11:07:34;;;;;;;12.60;11.50;;;26.40;1.00;;;;;;5696547;23;20193;-66
2021/06/10 11:10:49;;;;;;;13.60;12.30;;;26.90;1.00;;;;;;5713419;23;20394;-68
2021/06/10 11:13:19;;;;;;;11.30;10.20;;;26.10;1.00;;;;;;5714830;23;20897;-70
2021/06/10 11:15:45;;;;;;;11.67;10.53;;;26.10;1.00;;;;;;5717501;23;20782;-70
2021/06/10 11:18:12;;;;;;;9.60;8.70;;;26.00;1.00;;;;;;5685684;23;20482;-68
2021/06/10 11:20:39;;;;;;;10.13;9.23;;;25.90;1.00;;;;;;5680257;23;20404;-66
2021/06/10 11:23:13;;;;;;;11.60;10.57;;;26.40;1.00;;;;;;5700968;23;20413;-65
2021/06/10 11:25:58;;;;;;;10.90;9.90;;;26.50;1.00;;;;;;5700295;23;20813;-65
2021/06/10 11:28:28;;;;;;;9.67;8.83;;;26.40;1.00;;;;;;5644742;23;20958;-67
2021/06/10 11:31:17;;;;;;;9.30;8.40;;;26.60;1.00;;;;;;5709830;23;20739;-68
2021/06/10 11:33:43;;;;;;;10.63;9.63;;;27.00;1.00;;;;;;5686812;23;20373;-71
2021/06/10 11:36:12;;;;;;;12.40;9.40;;;26.50;1.00;;;;;;5683769;23;20524;-69
2021/06/10 11:38:47;;;;;;;11.70;10.30;;;26.40;1.00;;;;;;5633296;23;21404;-70
2021/06/10 11:41:31;;;;;;;10.67;9.70;;;26.50;1.00;;;;;;5677687;23;20919;-68
2021/06/10 11:43:58;;;;;;;12.37;11.17;;;26.40;1.00;;;;;;5700703;23;20369;-66
2021/06/10 11:46:38;;;;;;;10.87;9.97;;;26.30;1.00;;;;;;5698950;23;20873;-66
2021/06/10 11:49:05;;;;;;;11.47;10.33;;;26.10;1.00;;;;;;5694429;23;20421;-65
2021/06/10 11:51:35;;;;;;;16.13;10.90;;;25.90;1.00;;;;;;5706206;23;20883;-65
2021/06/10 11:54:10;;;;;;;12.07;10.93;;;25.60;1.00;;;;;;5650217;23;20784;-65
2021/06/10 11:56:38;;;;;;;9.27;8.37;;;25.90;1.00;;;;;;5666461;23;20409;-67
2021/06/10 11:59:29;;;;;;;11.20;10.10;;;26.30;1.00;;;;;;5681622;23;20460;-70
2021/06/10 12:02:00;;;;;;;10.70;9.60;;;26.10;1.00;;;;;;5659766;23;20394;-68
2021/06/10 12:04:31;;;;;;;9.50;8.60;;;26.40;1.00;;;;;;5686762;23;20400;-65
2021/06/10 12:07:12;;;;;;;8.67;7.97;;;26.90;1.00;;;;;;5684249;23;20497;-65
2021/06/10 12:09:54;;;;;;;7.97;7.20;;;27.20;1.00;;;;;;5698929;23;20779;-65
2021/06/10 12:12:32;;;;;;;9.53;8.73;;;27.50;1.00;;;;;;5692798;23;20463;-64
2021/06/10 12:14:57;;;;;;;9.83;8.80;;;27.20;1.00;;;;;;5657237;23;20456;-66
2021/06/10 12:17:23;;;;;;;8.97;8.00;;;27.10;1.00;;;;;;5679000;23;20715;-65
2021/06/10 12:20:22;;;;;;;8.30;7.60;;;27.10;1.00;;;;;;5677570;23;20753;-65
2021/06/10 12:22:49;;;;;;;8.90;8.00;;;27.20;1.00;;;;;;5660413;23;20245;-66
2021/06/10 12:25:20;;;;;;;10.00;9.03;;;27.40;1.00;;;;;;5699561;23;20416;-65
2021/06/10 12:27:47;;;;;;;12.03;10.87;;;27.40;1.00;;;;;;5669578;23;20492;-65
2021/06/10 12:30:38;;;;;;;9.97;8.97;;;26.60;1.00;;;;;;5698876;23;20393;-63
2021/06/10 12:33:21;;;;;;;11.50;9.70;;;26.90;1.00;;;;;;5711837;23;20839;-66
2021/06/10 12:35:52;;;;;;;10.13;9.23;;;26.70;1.00;;;;;;5699716;23;20771;-66
2021/06/10 12:38:26;;;;;;;9.67;8.87;;;26.40;1.00;;;;;;5678048;23;20704;-66
2021/06/10 12:40:52;;;;;;;12.47;11.00;;;26.60;1.00;;;;;;5717688;23;20384;-65
2021/06/10 12:43:21;;;;;;;11.33;10.00;;;26.40;1.00;;;;;;5714680;23;20822;-66
2021/06/10 12:45:49;;;;;;;13.87;10.40;;;26.80;1.00;;;;;;5710111;23;20579;-64
2021/06/10 12:48:24;;;;;;;10.83;9.93;;;27.20;1.00;;;;;;5693866;23;20402;-69